sensor_id;sensor_type;location;lat;lon;timestamp;temperature;humidity
3408;DHT22;1717;50.240;8.406;2023-05-10T00:01:52;15.40;99.90
3408;DHT22;1717;50.240;8.406;2023-05-10T00:04:21;15.50;99.90
3408;DHT22;1717;50.240;8.406;2023-05-10T00:06:47;15.50;99.90
3408;DHT22;1717;50.240;8.406;2023-05-10T00:09:14;15.50;99.90
3408;DHT22;1717;50.240;8.406;2023-05-10T00:11:41;15.50;99.90
3408;DHT22;1717;50.240;8.406;2023-05-10T00:14:08;15.50;99.90
3408;DHT22;1717;50.240;8.406;2023-05-10T00:16:35;15.50;99.90
3408;DHT22;1717;50.240;8.406;2023-05-10T00:19:02;15.40;99.90
3408;DHT22;1717;50.240;8.406;2023-05-10T00:21:30;15.40;99.90
3408;DHT22;1717;50.240;8.406;2023-05-10T00:23:57;15.50;99.90
3408;DHT22;1717;50.240;8.406;2023-05-10T00:26:24;15.40;99.90
3408;DHT22;1717;50.240;8.406;2023-05-10T00:28:51;15.40;99.90
3408;DHT22;1717;50.240;8.406;2023-05-10T00:31:18;15.40;99.90
3408;DHT22;1717;50.240;8.406;2023-05-10T00:33:44;15.40;99.90
3408;DHT22;1717;50.240;8.406;2023-05-10T00:36:11;15.40;99.90
3408;DHT22;1717;50.240;8.406;2023-05-10T00:38:40;15.40;99.90
3408;DHT22;1717;50.240;8.406;2023-05-10T00:41:06;15.30;99.90
3408;DHT22;1717;50.240;8.406;2023-05-10T00:43:33;15.30;99.90
3408;DHT22;1717;50.240;8.406;2023-05-10T00:46:00;15.30;99.90
3408;DHT22;1717;50.240;8.406;2023-05-10T00:48:28;15.30;99.90
3408;DHT22;1717;50.240;8.406;2023-05-10T00:50:55;15.30;99.90
3408;DHT22;1717;50.240;8.406;2023-05-10T00:53:23;15.30;99.90
3408;DHT22;1717;50.240;8.406;2023-05-10T00:55:52;15.30;99.90
3408;DHT22;1717;50.240;8.406;2023-05-10T00:58:19;15.20;99.90
3408;DHT22;1717;50.240;8.406;2023-05-10T01:00:46;15.20;99.90
3408;DHT22;1717;50.240;8.406;2023-05-10T01:03:13;15.20;99.90
3408;DHT22;1717;50.240;8.406;2023-05-10T01:05:40;15.20;99.90
3408;DHT22;1717;50.240;8.406;2023-05-10T01:08:07;15.20;99.90
3408;DHT22;1717;50.240;8.406;2023-05-10T01:10:35;15.20;99.90
3408;DHT22;1717;50.240;8.406;2023-05-10T01:13:03;15.20;99.90
3408;DHT22;1717;50.240;8.406;2023-05-10T01:15:30;15.20;99.90
3408;DHT22;1717;50.240;8.406;2023-05-10T01:17:57;15.20;99.90
3408;DHT22;1717;50.240;8.406;2023-05-10T01:20:24;15.10;99.90
3408;DHT22;1717;50.240;8.406;2023-05-10T01:23:11;15.10;99.90
3408;DHT22;1717;50.240;8.406;2023-05-10T01:26:03;15.10;99.90
3408;DHT22;1717;50.240;8.406;2023-05-10T01:29:12;15.10;99.90
3408;DHT22;1717;50.240;8.406;2023-05-10T01:32:02;15.00;99.90
3408;DHT22;1717;50.240;8.406;2023-05-10T01:34:42;15.00;99.90
3408;DHT22;1717;50.240;8.406;2023-05-10T01:37:17;15.00;99.90
3408;DHT22;1717;50.240;8.406;2023-05-10T01:39:49;15.00;99.90
3408;DHT22;1717;50.240;8.406;2023-05-10T01:42:23;15.00;99.90
3408;DHT22;1717;50.240;8.406;2023-05-10T01:44:56;15.00;99.90
3408;DHT22;1717;50.240;8.406;2023-05-10T01:47:34;14.90;99.90
3408;DHT22;1717;50.240;8.406;2023-05-10T01:50:03;14.90;99.90
3408;DHT22;1717;50.240;8.406;2023-05-10T01:52:36;14.90;99.90
3408;DHT22;1717;50.240;8.406;2023-05-10T01:55:07;14.90;99.90
3408;DHT22;1717;50.240;8.406;2023-05-10T01:57:37;14.90;99.90
3408;DHT22;1717;50.240;8.406;2023-05-10T02:00:07;14.90;99.90
3408;DHT22;1717;50.240;8.406;2023-05-10T02:02:38;14.90;99.90
3408;DHT22;1717;50.240;8.406;2023-05-10T02:05:08;14.90;99.90
3408;DHT22;1717;50.240;8.406;2023-05-10T02:07:36;14.80;99.90
3408;DHT22;1717;50.240;8.406;2023-05-10T02:10:05;14.80;99.90
3408;DHT22;1717;50.240;8.406;2023-05-10T02:12:35;14.80;99.90
3408;DHT22;1717;50.240;8.406;2023-05-10T02:15:05;14.80;99.90
3408;DHT22;1717;50.240;8.406;2023-05-10T02:17:34;14.80;99.90
3408;DHT22;1717;50.240;8.406;2023-05-10T02:20:02;14.80;99.90
3408;DHT22;1717;50.240;8.406;2023-05-10T02:22:30;14.70;99.90
3408;DHT22;1717;50.240;8.406;2023-05-10T02:24:58;14.70;99.90
3408;DHT22;1717;50.240;8.406;2023-05-10T02:27:27;14.80;99.90
3408;DHT22;1717;50.240;8.406;2023-05-10T02:29:55;14.80;99.90
3408;DHT22;1717;50.240;8.406;2023-05-10T02:32:24;14.80;99.90
3408;DHT22;1717;50.240;8.406;2023-05-10T02:34:54;14.80;99.90
3408;DHT22;1717;50.240;8.406;2023-05-10T02:37:21;14.80;99.90
3408;DHT22;1717;50.240;8.406;2023-05-10T02:39:49;14.70;99.90
3408;DHT22;1717;50.240;8.406;2023-05-10T02:42:18;14.70;99.90
3408;DHT22;1717;50.240;8.406;2023-05-10T02:44:47;14.70;99.90
3408;DHT22;1717;50.240;8.406;2023-05-10T02:47:15;14.70;99.90
3408;DHT22;1717;50.240;8.406;2023-05-10T02:49:42;14.70;99.90
3408;DHT22;1717;50.240;8.406;2023-05-10T02:52:10;14.70;99.90
3408;DHT22;1717;50.240;8.406;2023-05-10T02:54:45;14.70;99.90
3408;DHT22;1717;50.240;8.406;2023-05-10T02:57:16;14.60;99.90
3408;DHT22;1717;50.240;8.406;2023-05-10T02:59:44;14.60;99.90
3408;DHT22;1717;50.240;8.406;2023-05-10T03:02:12;14.60;99.90
3408;DHT22;1717;50.240;8.406;2023-05-10T03:04:39;14.70;99.90
3408;DHT22;1717;50.240;8.406;2023-05-10T03:07:06;14.70;99.90
3408;DHT22;1717;50.240;8.406;2023-05-10T03:09:35;14.70;99.90
3408;DHT22;1717;50.240;8.406;2023-05-10T03:12:06;14.70;99.90
3408;DHT22;1717;50.240;8.406;2023-05-10T03:14:42;14.70;99.90
3408;DHT22;1717;50.240;8.406;2023-05-10T03:17:15;14.70;99.90
3408;DHT22;1717;50.240;8.406;2023-05-10T03:19:49;14.60;99.90
3408;DHT22;1717;50.240;8.406;2023-05-10T03:22:28;14.60;99.90
3408;DHT22;1717;50.240;8.406;2023-05-10T03:25:00;14.70;99.90
3408;DHT22;1717;50.240;8.406;2023-05-10T03:27:32;14.70;99.90
3408;DHT22;1717;50.240;8.406;2023-05-10T03:30:02;14.80;99.90
3408;DHT22;1717;50.240;8.406;2023-05-10T03:32:29;14.80;99.90
3408;DHT22;1717;50.240;8.406;2023-05-10T03:34:57;14.90;99.90
3408;DHT22;1717;50.240;8.406;2023-05-10T03:37:24;14.90;99.90
3408;DHT22;1717;50.240;8.406;2023-05-10T03:39:50;14.90;99.90
3408;DHT22;1717;50.240;8.406;2023-05-10T03:42:19;14.90;99.90
3408;DHT22;1717;50.240;8.406;2023-05-10T03:44:46;14.90;99.90
3408;DHT22;1717;50.240;8.406;2023-05-10T03:47:14;14.90;99.90
3408;DHT22;1717;50.240;8.406;2023-05-10T03:49:41;15.00;99.90
3408;DHT22;1717;50.240;8.406;2023-05-10T03:52:08;15.00;99.90
3408;DHT22;1717;50.240;8.406;2023-05-10T03:54:35;15.10;99.90
3408;DHT22;1717;50.240;8.406;2023-05-10T03:57:02;15.00;99.90
3408;DHT22;1717;50.240;8.406;2023-05-10T03:59:30;15.00;99.90
3408;DHT22;1717;50.240;8.406;2023-05-10T04:01:57;15.00;99.90
3408;DHT22;1717;50.240;8.406;2023-05-10T04:04:24;15.00;99.90
3408;DHT22;1717;50.240;8.406;2023-05-10T04:06:51;15.00;99.90
3408;DHT22;1717;50.240;8.406;2023-05-10T04:09:18;15.00;99.90
3408;DHT22;1717;50.240;8.406;2023-05-10T04:11:45;15.00;99.90
3408;DHT22;1717;50.240;8.406;2023-05-10T04:14:11;15.00;99.90
3408;DHT22;1717;50.240;8.406;2023-05-10T04:16:41;15.00;99.90
3408;DHT22;1717;50.240;8.406;2023-05-10T04:19:07;15.00;99.90
3408;DHT22;1717;50.240;8.406;2023-05-10T04:21:34;14.90;99.90
3408;DHT22;1717;50.240;8.406;2023-05-10T04:24:01;14.90;99.90
3408;DHT22;1717;50.240;8.406;2023-05-10T04:26:28;14.90;99.90
3408;DHT22;1717;50.240;8.406;2023-05-10T04:28:55;14.90;99.90
3408;DHT22;1717;50.240;8.406;2023-05-10T04:31:21;14.90;99.90
3408;DHT22;1717;50.240;8.406;2023-05-10T04:33:49;14.90;99.90
3408;DHT22;1717;50.240;8.406;2023-05-10T04:36:16;14.90;99.90
3408;DHT22;1717;50.240;8.406;2023-05-10T04:38:43;14.90;99.90
3408;DHT22;1717;50.240;8.406;2023-05-10T04:41:11;14.90;99.90
3408;DHT22;1717;50.240;8.406;2023-05-10T04:43:38;14.90;99.90
3408;DHT22;1717;50.240;8.406;2023-05-10T04:46:05;14.90;99.90
3408;DHT22;1717;50.240;8.406;2023-05-10T04:48:32;14.80;99.90
3408;DHT22;1717;50.240;8.406;2023-05-10T04:51:00;14.80;99.90
3408;DHT22;1717;50.240;8.406;2023-05-10T04:53:29;14.80;99.90
3408;DHT22;1717;50.240;8.406;2023-05-10T04:55:56;14.80;99.90
3408;DHT22;1717;50.240;8.406;2023-05-10T04:58:22;14.80;99.90
3408;DHT22;1717;50.240;8.406;2023-05-10T05:00:49;14.70;99.90
3408;DHT22;1717;50.240;8.406;2023-05-10T05:03:16;14.70;99.90
3408;DHT22;1717;50.240;8.406;2023-05-10T05:05:43;14.70;99.90
3408;DHT22;1717;50.240;8.406;2023-05-10T05:08:11;14.80;99.90
3408;DHT22;1717;50.240;8.406;2023-05-10T05:10:38;14.70;99.90
3408;DHT22;1717;50.240;8.406;2023-05-10T05:13:05;14.70;99.90
3408;DHT22;1717;50.240;8.406;2023-05-10T05:15:32;14.70;99.90
3408;DHT22;1717;50.240;8.406;2023-05-10T05:17:59;14.80;99.90
3408;DHT22;1717;50.240;8.406;2023-05-10T05:20:26;14.70;99.90
3408;DHT22;1717;50.240;8.406;2023-05-10T05:22:53;14.70;99.90
3408;DHT22;1717;50.240;8.406;2023-05-10T05:25:21;14.70;99.90
3408;DHT22;1717;50.240;8.406;2023-05-10T05:27:48;14.70;99.90
3408;DHT22;1717;50.240;8.406;2023-05-10T05:30:15;14.70;99.90
3408;DHT22;1717;50.240;8.406;2023-05-10T05:32:42;14.70;99.90
3408;DHT22;1717;50.240;8.406;2023-05-10T05:35:09;14.70;99.90
3408;DHT22;1717;50.240;8.406;2023-05-10T05:37:36;14.70;99.90
3408;DHT22;1717;50.240;8.406;2023-05-10T05:40:04;14.70;99.90
3408;DHT22;1717;50.240;8.406;2023-05-10T05:42:32;14.70;99.90
3408;DHT22;1717;50.240;8.406;2023-05-10T05:44:59;14.60;99.90
3408;DHT22;1717;50.240;8.406;2023-05-10T05:47:26;14.60;99.90
3408;DHT22;1717;50.240;8.406;2023-05-10T05:49:53;14.70;99.90
3408;DHT22;1717;50.240;8.406;2023-05-10T05:52:20;14.70;99.90
3408;DHT22;1717;50.240;8.406;2023-05-10T05:54:47;14.70;99.90
3408;DHT22;1717;50.240;8.406;2023-05-10T05:57:14;14.70;99.90
3408;DHT22;1717;50.240;8.406;2023-05-10T05:59:42;14.70;99.90
3408;DHT22;1717;50.240;8.406;2023-05-10T06:02:09;14.60;99.90
3408;DHT22;1717;50.240;8.406;2023-05-10T06:04:36;14.70;99.90
3408;DHT22;1717;50.240;8.406;2023-05-10T06:07:03;14.70;99.90
3408;DHT22;1717;50.240;8.406;2023-05-10T06:09:30;14.70;99.90
3408;DHT22;1717;50.240;8.406;2023-05-10T06:11:57;14.70;99.90
3408;DHT22;1717;50.240;8.406;2023-05-10T06:14:23;14.70;99.90
3408;DHT22;1717;50.240;8.406;2023-05-10T06:16:52;14.70;99.90
3408;DHT22;1717;50.240;8.406;2023-05-10T06:19:18;14.70;99.90
3408;DHT22;1717;50.240;8.406;2023-05-10T06:21:45;14.80;99.90
3408;DHT22;1717;50.240;8.406;2023-05-10T06:24:12;14.80;99.90
3408;DHT22;1717;50.240;8.406;2023-05-10T06:26:39;14.80;99.90
3408;DHT22;1717;50.240;8.406;2023-05-10T06:29:06;14.70;99.90
3408;DHT22;1717;50.240;8.406;2023-05-10T06:31:32;14.80;99.90
3408;DHT22;1717;50.240;8.406;2023-05-10T06:34:01;14.80;99.90
3408;DHT22;1717;50.240;8.406;2023-05-10T06:36:27;14.80;99.90
3408;DHT22;1717;50.240;8.406;2023-05-10T06:38:54;14.80;99.90
3408;DHT22;1717;50.240;8.406;2023-05-10T06:41:21;14.80;99.90
3408;DHT22;1717;50.240;8.406;2023-05-10T06:43:48;14.80;99.90
3408;DHT22;1717;50.240;8.406;2023-05-10T06:46:15;14.80;99.90
3408;DHT22;1717;50.240;8.406;2023-05-10T06:48:41;14.80;99.90
3408;DHT22;1717;50.240;8.406;2023-05-10T06:51:10;14.80;99.90
3408;DHT22;1717;50.240;8.406;2023-05-10T06:53:36;14.80;99.90
3408;DHT22;1717;50.240;8.406;2023-05-10T06:56:03;14.90;99.90
3408;DHT22;1717;50.240;8.406;2023-05-10T06:58:30;14.90;99.90
3408;DHT22;1717;50.240;8.406;2023-05-10T07:01:02;14.90;99.90
3408;DHT22;1717;50.240;8.406;2023-05-10T07:03:29;14.90;99.90
3408;DHT22;1717;50.240;8.406;2023-05-10T07:06:00;15.00;99.90
3408;DHT22;1717;50.240;8.406;2023-05-10T07:08:30;15.00;99.90
3408;DHT22;1717;50.240;8.406;2023-05-10T07:11:01;15.10;99.90
3408;DHT22;1717;50.240;8.406;2023-05-10T07:13:29;15.10;99.90
3408;DHT22;1717;50.240;8.406;2023-05-10T07:15:55;15.20;99.90
3408;DHT22;1717;50.240;8.406;2023-05-10T07:18:22;15.20;99.90
3408;DHT22;1717;50.240;8.406;2023-05-10T07:20:49;15.20;99.90
3408;DHT22;1717;50.240;8.406;2023-05-10T07:23:16;15.20;99.90
3408;DHT22;1717;50.240;8.406;2023-05-10T07:25:46;15.30;99.90
3408;DHT22;1717;50.240;8.406;2023-05-10T07:28:13;15.40;99.90
3408;DHT22;1717;50.240;8.406;2023-05-10T07:30:40;15.30;99.90
3408;DHT22;1717;50.240;8.406;2023-05-10T07:33:07;15.30;99.90
3408;DHT22;1717;50.240;8.406;2023-05-10T07:35:35;15.30;99.90
3408;DHT22;1717;50.240;8.406;2023-05-10T07:38:02;15.30;99.90
3408;DHT22;1717;50.240;8.406;2023-05-10T07:40:29;15.40;99.90
3408;DHT22;1717;50.240;8.406;2023-05-10T07:42:57;15.40;99.90
3408;DHT22;1717;50.240;8.406;2023-05-10T07:45:25;15.50;99.90
3408;DHT22;1717;50.240;8.406;2023-05-10T07:47:52;15.50;99.90
3408;DHT22;1717;50.240;8.406;2023-05-10T07:50:19;15.60;99.90
3408;DHT22;1717;50.240;8.406;2023-05-10T07:52:46;15.70;99.90
3408;DHT22;1717;50.240;8.406;2023-05-10T07:55:13;15.70;99.90
3408;DHT22;1717;50.240;8.406;2023-05-10T07:57:41;15.80;99.90
3408;DHT22;1717;50.240;8.406;2023-05-10T08:00:17;15.80;99.90
3408;DHT22;1717;50.240;8.406;2023-05-10T08:02:44;15.90;99.90
3408;DHT22;1717;50.240;8.406;2023-05-10T08:05:11;15.90;99.90
3408;DHT22;1717;50.240;8.406;2023-05-10T08:07:39;15.90;99.90
3408;DHT22;1717;50.240;8.406;2023-05-10T08:10:07;15.90;99.90
3408;DHT22;1717;50.240;8.406;2023-05-10T08:12:35;16.00;99.90
3408;DHT22;1717;50.240;8.406;2023-05-10T08:15:02;16.00;99.90
3408;DHT22;1717;50.240;8.406;2023-05-10T08:17:30;16.00;99.90
3408;DHT22;1717;50.240;8.406;2023-05-10T08:19:57;16.10;99.90
3408;DHT22;1717;50.240;8.406;2023-05-10T08:22:23;16.10;99.90
3408;DHT22;1717;50.240;8.406;2023-05-10T08:24:50;16.10;99.90
3408;DHT22;1717;50.240;8.406;2023-05-10T08:27:17;16.10;99.90
3408;DHT22;1717;50.240;8.406;2023-05-10T08:29:44;16.10;99.90
3408;DHT22;1717;50.240;8.406;2023-05-10T08:32:11;16.10;99.90
3408;DHT22;1717;50.240;8.406;2023-05-10T08:34:39;16.20;99.90
3408;DHT22;1717;50.240;8.406;2023-05-10T08:37:06;16.00;99.90
3408;DHT22;1717;50.240;8.406;2023-05-10T08:39:34;16.00;99.90
3408;DHT22;1717;50.240;8.406;2023-05-10T08:42:03;16.00;99.90
3408;DHT22;1717;50.240;8.406;2023-05-10T08:44:32;16.10;99.90
3408;DHT22;1717;50.240;8.406;2023-05-10T08:46:59;16.10;99.90
3408;DHT22;1717;50.240;8.406;2023-05-10T08:49:31;16.10;99.90
3408;DHT22;1717;50.240;8.406;2023-05-10T08:52:02;16.10;99.90
3408;DHT22;1717;50.240;8.406;2023-05-10T08:54:31;16.10;99.90
3408;DHT22;1717;50.240;8.406;2023-05-10T08:56:58;16.20;99.90
3408;DHT22;1717;50.240;8.406;2023-05-10T08:59:26;16.20;99.90
3408;DHT22;1717;50.240;8.406;2023-05-10T09:01:54;16.20;99.90
3408;DHT22;1717;50.240;8.406;2023-05-10T09:04:22;16.20;99.90
3408;DHT22;1717;50.240;8.406;2023-05-10T09:06:49;16.20;99.90
3408;DHT22;1717;50.240;8.406;2023-05-10T09:09:17;16.20;99.90
3408;DHT22;1717;50.240;8.406;2023-05-10T09:11:45;16.30;99.90
3408;DHT22;1717;50.240;8.406;2023-05-10T09:14:12;16.30;99.90
3408;DHT22;1717;50.240;8.406;2023-05-10T09:16:40;16.30;99.90
3408;DHT22;1717;50.240;8.406;2023-05-10T09:19:07;16.30;99.90
3408;DHT22;1717;50.240;8.406;2023-05-10T09:21:35;16.40;99.90
3408;DHT22;1717;50.240;8.406;2023-05-10T09:24:04;16.40;99.90
3408;DHT22;1717;50.240;8.406;2023-05-10T09:26:33;16.40;99.90
3408;DHT22;1717;50.240;8.406;2023-05-10T09:29:01;16.40;99.90
3408;DHT22;1717;50.240;8.406;2023-05-10T09:31:46;16.50;99.90
3408;DHT22;1717;50.240;8.406;2023-05-10T09:34:16;16.50;99.90
3408;DHT22;1717;50.240;8.406;2023-05-10T09:36:54;16.70;99.90
3408;DHT22;1717;50.240;8.406;2023-05-10T09:39:30;16.60;99.90
3408;DHT22;1717;50.240;8.406;2023-05-10T09:41:59;16.60;99.90
3408;DHT22;1717;50.240;8.406;2023-05-10T09:44:29;16.70;99.90
3408;DHT22;1717;50.240;8.406;2023-05-10T09:46:56;16.70;99.90
3408;DHT22;1717;50.240;8.406;2023-05-10T09:49:23;16.80;99.90
3408;DHT22;1717;50.240;8.406;2023-05-10T09:52:00;16.80;99.90
3408;DHT22;1717;50.240;8.406;2023-05-10T09:54:27;16.80;99.90
3408;DHT22;1717;50.240;8.406;2023-05-10T09:56:54;16.90;99.90
3408;DHT22;1717;50.240;8.406;2023-05-10T09:59:25;16.90;99.90
3408;DHT22;1717;50.240;8.406;2023-05-10T10:01:53;17.00;99.90
3408;DHT22;1717;50.240;8.406;2023-05-10T10:04:20;17.00;99.90
3408;DHT22;1717;50.240;8.406;2023-05-10T10:06:58;17.10;99.90
3408;DHT22;1717;50.240;8.406;2023-05-10T10:09:26;17.20;99.90
3408;DHT22;1717;50.240;8.406;2023-05-10T10:11:54;17.30;99.90
3408;DHT22;1717;50.240;8.406;2023-05-10T10:14:23;17.40;99.90
3408;DHT22;1717;50.240;8.406;2023-05-10T10:16:50;17.50;99.90
3408;DHT22;1717;50.240;8.406;2023-05-10T10:19:18;17.50;99.90
3408;DHT22;1717;50.240;8.406;2023-05-10T10:21:45;17.60;99.90
3408;DHT22;1717;50.240;8.406;2023-05-10T10:24:11;17.70;99.90
3408;DHT22;1717;50.240;8.406;2023-05-10T10:26:39;17.70;99.90
3408;DHT22;1717;50.240;8.406;2023-05-10T10:29:16;17.70;99.90
3408;DHT22;1717;50.240;8.406;2023-05-10T10:31:52;17.70;99.90
3408;DHT22;1717;50.240;8.406;2023-05-10T10:34:25;17.70;99.90
3408;DHT22;1717;50.240;8.406;2023-05-10T10:36:54;17.60;99.90
3408;DHT22;1717;50.240;8.406;2023-05-10T10:39:22;17.60;99.90
3408;DHT22;1717;50.240;8.406;2023-05-10T10:41:51;17.50;99.90
3408;DHT22;1717;50.240;8.406;2023-05-10T10:44:39;17.50;99.90
3408;DHT22;1717;50.240;8.406;2023-05-10T10:50:06;17.40;99.90
3408;DHT22;1717;50.240;8.406;2023-05-10T10:52:34;17.40;99.90
3408;DHT22;1717;50.240;8.406;2023-05-10T10:55:03;17.40;99.90
3408;DHT22;1717;50.240;8.406;2023-05-10T10:57:43;17.40;99.90
3408;DHT22;1717;50.240;8.406;2023-05-10T11:00:28;17.30;99.90
3408;DHT22;1717;50.240;8.406;2023-05-10T11:02:59;17.30;99.90
3408;DHT22;1717;50.240;8.406;2023-05-10T11:05:35;17.30;99.90
3408;DHT22;1717;50.240;8.406;2023-05-10T11:08:17;17.40;99.90
3408;DHT22;1717;50.240;8.406;2023-05-10T11:10:52;17.50;99.90
3408;DHT22;1717;50.240;8.406;2023-05-10T11:13:28;17.40;99.90
3408;DHT22;1717;50.240;8.406;2023-05-10T11:15:56;17.40;99.90
3408;DHT22;1717;50.240;8.406;2023-05-10T11:18:27;17.40;99.90
3408;DHT22;1717;50.240;8.406;2023-05-10T11:20:57;17.30;99.90
3408;DHT22;1717;50.240;8.406;2023-05-10T11:23:30;17.20;99.90
3408;DHT22;1717;50.240;8.406;2023-05-10T11:25:57;17.20;99.90
3408;DHT22;1717;50.240;8.406;2023-05-10T11:28:24;17.20;99.90
3408;DHT22;1717;50.240;8.406;2023-05-10T11:30:52;17.20;99.90
3408;DHT22;1717;50.240;8.406;2023-05-10T11:33:20;17.20;99.90
3408;DHT22;1717;50.240;8.406;2023-05-10T11:35:48;17.10;99.90
3408;DHT22;1717;50.240;8.406;2023-05-10T11:38:15;17.10;99.90
3408;DHT22;1717;50.240;8.406;2023-05-10T11:40:43;17.20;99.90
3408;DHT22;1717;50.240;8.406;2023-05-10T11:43:10;17.20;99.90
3408;DHT22;1717;50.240;8.406;2023-05-10T11:45:38;17.20;99.90
3408;DHT22;1717;50.240;8.406;2023-05-10T11:48:06;17.20;99.90
3408;DHT22;1717;50.240;8.406;2023-05-10T11:50:33;17.30;99.90
3408;DHT22;1717;50.240;8.406;2023-05-10T11:53:02;17.30;99.90
3408;DHT22;1717;50.240;8.406;2023-05-10T11:55:29;17.30;99.90
3408;DHT22;1717;50.240;8.406;2023-05-10T11:58:00;17.20;99.90
3408;DHT22;1717;50.240;8.406;2023-05-10T12:00:27;17.40;99.90
3408;DHT22;1717;50.240;8.406;2023-05-10T12:02:54;17.20;99.90
3408;DHT22;1717;50.240;8.406;2023-05-10T12:05:22;17.20;99.90
3408;DHT22;1717;50.240;8.406;2023-05-10T12:07:49;17.30;99.90
3408;DHT22;1717;50.240;8.406;2023-05-10T12:10:25;17.20;99.90
3408;DHT22;1717;50.240;8.406;2023-05-10T12:12:52;17.20;99.90
3408;DHT22;1717;50.240;8.406;2023-05-10T12:15:20;17.20;99.90
3408;DHT22;1717;50.240;8.406;2023-05-10T12:17:48;17.20;99.90
3408;DHT22;1717;50.240;8.406;2023-05-10T12:20:17;17.20;99.90
3408;DHT22;1717;50.240;8.406;2023-05-10T12:22:45;17.30;99.90
3408;DHT22;1717;50.240;8.406;2023-05-10T12:25:13;17.30;99.90
3408;DHT22;1717;50.240;8.406;2023-05-10T12:27:41;17.40;99.90
3408;DHT22;1717;50.240;8.406;2023-05-10T12:30:19;17.40;99.90
3408;DHT22;1717;50.240;8.406;2023-05-10T12:32:46;17.50;99.90
3408;DHT22;1717;50.240;8.406;2023-05-10T12:35:13;17.60;99.90
3408;DHT22;1717;50.240;8.406;2023-05-10T12:37:42;17.70;99.90
3408;DHT22;1717;50.240;8.406;2023-05-10T12:40:10;17.80;99.90
3408;DHT22;1717;50.240;8.406;2023-05-10T12:42:38;17.90;99.90
3408;DHT22;1717;50.240;8.406;2023-05-10T12:45:08;18.00;99.90
3408;DHT22;1717;50.240;8.406;2023-05-10T12:47:35;18.10;99.90
3408;DHT22;1717;50.240;8.406;2023-05-10T12:50:03;18.20;99.90
3408;DHT22;1717;50.240;8.406;2023-05-10T12:52:31;18.20;99.90
3408;DHT22;1717;50.240;8.406;2023-05-10T12:54:58;18.30;99.90
3408;DHT22;1717;50.240;8.406;2023-05-10T12:57:25;18.40;99.90
3408;DHT22;1717;50.240;8.406;2023-05-10T12:59:52;18.50;99.90
3408;DHT22;1717;50.240;8.406;2023-05-10T13:02:20;18.60;99.90
3408;DHT22;1717;50.240;8.406;2023-05-10T13:04:49;18.70;99.90
3408;DHT22;1717;50.240;8.406;2023-05-10T13:07:15;18.80;99.90
3408;DHT22;1717;50.240;8.406;2023-05-10T13:09:42;18.80;99.90
3408;DHT22;1717;50.240;8.406;2023-05-10T13:12:09;18.80;99.90
3408;DHT22;1717;50.240;8.406;2023-05-10T13:14:36;18.90;99.90
3408;DHT22;1717;50.240;8.406;2023-05-10T13:17:03;18.90;99.90
3408;DHT22;1717;50.240;8.406;2023-05-10T13:19:31;18.90;99.90
3408;DHT22;1717;50.240;8.406;2023-05-10T13:21:58;18.90;99.90
3408;DHT22;1717;50.240;8.406;2023-05-10T13:24:25;18.90;99.90
3408;DHT22;1717;50.240;8.406;2023-05-10T13:26:52;18.90;99.90
3408;DHT22;1717;50.240;8.406;2023-05-10T13:29:19;18.90;99.90
3408;DHT22;1717;50.240;8.406;2023-05-10T13:31:48;18.90;99.90
3408;DHT22;1717;50.240;8.406;2023-05-10T13:34:14;18.80;99.90
3408;DHT22;1717;50.240;8.406;2023-05-10T13:36:43;18.80;99.90
3408;DHT22;1717;50.240;8.406;2023-05-10T13:39:10;18.70;99.90
3408;DHT22;1717;50.240;8.406;2023-05-10T13:41:37;18.60;99.90
3408;DHT22;1717;50.240;8.406;2023-05-10T13:44:04;18.50;99.90
3408;DHT22;1717;50.240;8.406;2023-05-10T13:46:31;18.40;99.90
3408;DHT22;1717;50.240;8.406;2023-05-10T13:48:58;18.40;99.90
3408;DHT22;1717;50.240;8.406;2023-05-10T13:51:25;18.40;99.90
3408;DHT22;1717;50.240;8.406;2023-05-10T13:53:53;18.30;99.90
3408;DHT22;1717;50.240;8.406;2023-05-10T13:56:20;18.20;99.90
3408;DHT22;1717;50.240;8.406;2023-05-10T13:58:47;18.20;99.90
3408;DHT22;1717;50.240;8.406;2023-05-10T14:01:13;18.10;99.90
3408;DHT22;1717;50.240;8.406;2023-05-10T14:03:40;18.10;99.90
3408;DHT22;1717;50.240;8.406;2023-05-10T14:06:07;18.10;99.90
3408;DHT22;1717;50.240;8.406;2023-05-10T14:08:35;17.90;99.90
3408;DHT22;1717;50.240;8.406;2023-05-10T14:11:03;17.90;99.90
3408;DHT22;1717;50.240;8.406;2023-05-10T14:13:30;17.90;99.90
3408;DHT22;1717;50.240;8.406;2023-05-10T14:15:57;17.90;99.90
3408;DHT22;1717;50.240;8.406;2023-05-10T14:18:26;17.90;99.90
3408;DHT22;1717;50.240;8.406;2023-05-10T14:20:52;18.00;99.90
3408;DHT22;1717;50.240;8.406;2023-05-10T14:23:19;18.10;99.90
3408;DHT22;1717;50.240;8.406;2023-05-10T14:25:49;18.10;99.90
3408;DHT22;1717;50.240;8.406;2023-05-10T14:28:17;18.20;99.90
3408;DHT22;1717;50.240;8.406;2023-05-10T14:30:45;18.20;99.90
3408;DHT22;1717;50.240;8.406;2023-05-10T14:33:12;18.30;99.90
3408;DHT22;1717;50.240;8.406;2023-05-10T14:35:39;18.40;99.90
3408;DHT22;1717;50.240;8.406;2023-05-10T14:38:06;18.40;99.90
3408;DHT22;1717;50.240;8.406;2023-05-10T14:40:33;18.50;99.90
3408;DHT22;1717;50.240;8.406;2023-05-10T14:43:01;18.50;99.90
3408;DHT22;1717;50.240;8.406;2023-05-10T14:45:30;18.60;99.90
3408;DHT22;1717;50.240;8.406;2023-05-10T14:47:57;18.70;99.90
3408;DHT22;1717;50.240;8.406;2023-05-10T14:50:24;18.70;99.90
3408;DHT22;1717;50.240;8.406;2023-05-10T14:52:51;18.80;99.90
3408;DHT22;1717;50.240;8.406;2023-05-10T14:55:18;18.80;99.90
3408;DHT22;1717;50.240;8.406;2023-05-10T14:57:45;19.00;99.90
3408;DHT22;1717;50.240;8.406;2023-05-10T15:00:15;18.90;99.90
3408;DHT22;1717;50.240;8.406;2023-05-10T15:02:46;18.90;99.90
3408;DHT22;1717;50.240;8.406;2023-05-10T15:05:13;18.90;99.90
3408;DHT22;1717;50.240;8.406;2023-05-10T15:07:41;19.00;99.90
3408;DHT22;1717;50.240;8.406;2023-05-10T15:10:09;19.00;99.90
3408;DHT22;1717;50.240;8.406;2023-05-10T15:12:37;19.10;99.90
3408;DHT22;1717;50.240;8.406;2023-05-10T15:15:05;19.10;99.90
3408;DHT22;1717;50.240;8.406;2023-05-10T15:17:32;19.10;99.90
3408;DHT22;1717;50.240;8.406;2023-05-10T15:20:00;19.20;99.90
3408;DHT22;1717;50.240;8.406;2023-05-10T15:22:28;19.20;99.90
3408;DHT22;1717;50.240;8.406;2023-05-10T15:24:55;19.20;99.90
3408;DHT22;1717;50.240;8.406;2023-05-10T15:27:22;19.20;99.90
3408;DHT22;1717;50.240;8.406;2023-05-10T15:29:49;19.20;99.90
3408;DHT22;1717;50.240;8.406;2023-05-10T15:32:16;19.20;99.90
3408;DHT22;1717;50.240;8.406;2023-05-10T15:34:43;19.20;99.90
3408;DHT22;1717;50.240;8.406;2023-05-10T15:37:11;19.30;99.80
3408;DHT22;1717;50.240;8.406;2023-05-10T15:39:38;19.20;99.90
3408;DHT22;1717;50.240;8.406;2023-05-10T15:42:05;19.20;99.60
3408;DHT22;1717;50.240;8.406;2023-05-10T15:44:32;19.20;99.90
3408;DHT22;1717;50.240;8.406;2023-05-10T15:47:00;19.30;99.90
3408;DHT22;1717;50.240;8.406;2023-05-10T15:49:28;19.30;99.80
3408;DHT22;1717;50.240;8.406;2023-05-10T15:51:54;19.30;99.90
3408;DHT22;1717;50.240;8.406;2023-05-10T15:54:22;19.30;99.70
3408;DHT22;1717;50.240;8.406;2023-05-10T15:56:49;19.30;99.40
3408;DHT22;1717;50.240;8.406;2023-05-10T15:59:16;19.30;99.20
3408;DHT22;1717;50.240;8.406;2023-05-10T16:01:43;19.30;99.30
3408;DHT22;1717;50.240;8.406;2023-05-10T16:04:10;19.30;98.80
3408;DHT22;1717;50.240;8.406;2023-05-10T16:06:36;19.30;99.40
3408;DHT22;1717;50.240;8.406;2023-05-10T16:09:03;19.30;98.50
3408;DHT22;1717;50.240;8.406;2023-05-10T16:11:31;19.30;98.80
3408;DHT22;1717;50.240;8.406;2023-05-10T16:13:58;19.30;99.00